Pine Bush, New York
Current Conditions -  °F | °C
As of 4:54 PM on Wednesday 28 Jan 2015 (Local Time) from KMGJ Reporting Station
Clear Clear  
Wind Chill: 21°   Ceiling: Unl
Heat Index: 26°   Visibility: 10mi
Dew Point:   Wind: 5mph
Humidity: 41%   Direction: 20°NNE
Pressure: 30.12"   Gusts: NA
Location:  41.61°N, 74.3°W
Report Text: KMGJ 282154Z AUTO 02004KT 10SM CLR M03/M15 A3012 RMK AO2 SLP206 T10331150 TSNO $
Loading
Personal Weather Stations






























Interactive Weather Map New forecast layout! Learn more

10-Day Weather Forecast

Advertisements
Track Severe Weather on mobile